sensor_id;sensor_type;location;lat;lon;timestamp;temperature;humidity
37678;DHT22;23517;50.390;8.616;2024-03-06T00:02:20;6.90;99.90
37678;DHT22;23517;50.390;8.616;2024-03-06T00:04:49;6.90;99.90
37678;DHT22;23517;50.390;8.616;2024-03-06T00:07:16;6.90;99.90
37678;DHT22;23517;50.390;8.616;2024-03-06T00:09:43;6.80;99.90
37678;DHT22;23517;50.390;8.616;2024-03-06T00:12:10;6.80;99.90
37678;DHT22;23517;50.390;8.616;2024-03-06T00:14:36;6.80;99.90
37678;DHT22;23517;50.390;8.616;2024-03-06T00:17:03;6.80;99.90
37678;DHT22;23517;50.390;8.616;2024-03-06T00:19:31;6.80;99.90
37678;DHT22;23517;50.390;8.616;2024-03-06T00:21:58;6.80;99.90
37678;DHT22;23517;50.390;8.616;2024-03-06T00:24:25;6.80;99.90
37678;DHT22;23517;50.390;8.616;2024-03-06T00:26:52;6.80;99.90
37678;DHT22;23517;50.390;8.616;2024-03-06T00:29:20;6.80;99.90
37678;DHT22;23517;50.390;8.616;2024-03-06T00:31:47;6.80;99.90
37678;DHT22;23517;50.390;8.616;2024-03-06T00:34:14;6.80;99.90
37678;DHT22;23517;50.390;8.616;2024-03-06T00:36:44;6.80;99.90
37678;DHT22;23517;50.390;8.616;2024-03-06T00:39:11;6.80;99.90
37678;DHT22;23517;50.390;8.616;2024-03-06T00:41:40;6.80;99.90
37678;DHT22;23517;50.390;8.616;2024-03-06T00:44:08;6.80;99.90
37678;DHT22;23517;50.390;8.616;2024-03-06T00:46:35;6.80;99.90
37678;DHT22;23517;50.390;8.616;2024-03-06T00:49:02;6.80;99.90
37678;DHT22;23517;50.390;8.616;2024-03-06T00:51:28;6.70;1.00
37678;DHT22;23517;50.390;8.616;2024-03-06T00:54:12;6.70;99.90
37678;DHT22;23517;50.390;8.616;2024-03-06T00:56:39;6.60;99.90
37678;DHT22;23517;50.390;8.616;2024-03-06T00:59:06;6.60;99.90
37678;DHT22;23517;50.390;8.616;2024-03-06T01:01:33;6.70;1.00
37678;DHT22;23517;50.390;8.616;2024-03-06T01:04:00;6.70;99.90
37678;DHT22;23517;50.390;8.616;2024-03-06T01:06:27;6.60;99.90
37678;DHT22;23517;50.390;8.616;2024-03-06T01:08:54;6.60;99.90
37678;DHT22;23517;50.390;8.616;2024-03-06T01:11:21;6.70;99.90
37678;DHT22;23517;50.390;8.616;2024-03-06T01:13:48;6.60;99.90
37678;DHT22;23517;50.390;8.616;2024-03-06T01:16:15;6.60;99.90
37678;DHT22;23517;50.390;8.616;2024-03-06T01:18:42;6.60;99.90
37678;DHT22;23517;50.390;8.616;2024-03-06T01:21:10;6.70;99.90
37678;DHT22;23517;50.390;8.616;2024-03-06T01:23:37;6.60;1.40
37678;DHT22;23517;50.390;8.616;2024-03-06T01:26:05;6.70;1.00
37678;DHT22;23517;50.390;8.616;2024-03-06T01:28:32;6.70;1.00
37678;DHT22;23517;50.390;8.616;2024-03-06T01:31:01;6.70;99.90
37678;DHT22;23517;50.390;8.616;2024-03-06T01:33:27;6.70;99.90
37678;DHT22;23517;50.390;8.616;2024-03-06T01:35:54;6.60;99.90
37678;DHT22;23517;50.390;8.616;2024-03-06T01:38:21;6.60;99.90
37678;DHT22;23517;50.390;8.616;2024-03-06T01:40:48;6.60;99.90
37678;DHT22;23517;50.390;8.616;2024-03-06T01:43:22;6.60;99.90
37678;DHT22;23517;50.390;8.616;2024-03-06T01:45:50;6.50;99.90
37678;DHT22;23517;50.390;8.616;2024-03-06T01:48:27;6.50;99.90
37678;DHT22;23517;50.390;8.616;2024-03-06T01:50:56;6.50;99.90
37678;DHT22;23517;50.390;8.616;2024-03-06T01:53:26;6.40;99.90
37678;DHT22;23517;50.390;8.616;2024-03-06T01:55:54;6.40;1.00
37678;DHT22;23517;50.390;8.616;2024-03-06T01:58:21;6.40;1.00
37678;DHT22;23517;50.390;8.616;2024-03-06T02:00:50;6.40;1.00
37678;DHT22;23517;50.390;8.616;2024-03-06T02:03:18;6.40;1.00
37678;DHT22;23517;50.390;8.616;2024-03-06T02:05:51;6.40;1.00
37678;DHT22;23517;50.390;8.616;2024-03-06T02:08:18;6.40;1.00
37678;DHT22;23517;50.390;8.616;2024-03-06T02:10:45;6.30;1.00
37678;DHT22;23517;50.390;8.616;2024-03-06T02:13:13;6.30;1.00
37678;DHT22;23517;50.390;8.616;2024-03-06T02:15:40;6.20;1.00
37678;DHT22;23517;50.390;8.616;2024-03-06T02:18:07;6.20;1.00
37678;DHT22;23517;50.390;8.616;2024-03-06T02:20:38;6.10;1.00
37678;DHT22;23517;50.390;8.616;2024-03-06T02:23:06;6.10;1.00
37678;DHT22;23517;50.390;8.616;2024-03-06T02:25:34;6.00;1.00
37678;DHT22;23517;50.390;8.616;2024-03-06T02:28:01;6.00;1.80
37678;DHT22;23517;50.390;8.616;2024-03-06T02:30:27;5.90;26.80
37678;DHT22;23517;50.390;8.616;2024-03-06T02:32:56;5.90;57.00
37678;DHT22;23517;50.390;8.616;2024-03-06T02:35:23;5.90;40.10
37678;DHT22;23517;50.390;8.616;2024-03-06T02:37:50;5.80;60.70
37678;DHT22;23517;50.390;8.616;2024-03-06T02:40:17;5.90;44.20
37678;DHT22;23517;50.390;8.616;2024-03-06T02:42:43;5.90;41.80
37678;DHT22;23517;50.390;8.616;2024-03-06T02:45:10;5.80;51.60
37678;DHT22;23517;50.390;8.616;2024-03-06T02:47:37;5.90;15.10
37678;DHT22;23517;50.390;8.616;2024-03-06T02:50:04;5.90;5.40
37678;DHT22;23517;50.390;8.616;2024-03-06T02:52:31;5.90;1.00
37678;DHT22;23517;50.390;8.616;2024-03-06T02:54:58;5.90;1.00
37678;DHT22;23517;50.390;8.616;2024-03-06T02:57:28;5.90;1.00
37678;DHT22;23517;50.390;8.616;2024-03-06T02:59:56;5.90;1.00
37678;DHT22;23517;50.390;8.616;2024-03-06T03:02:24;5.90;1.00
37678;DHT22;23517;50.390;8.616;2024-03-06T03:04:52;5.90;1.00
37678;DHT22;23517;50.390;8.616;2024-03-06T03:07:19;5.90;1.00
37678;DHT22;23517;50.390;8.616;2024-03-06T03:09:46;5.90;1.00
37678;DHT22;23517;50.390;8.616;2024-03-06T03:12:13;5.90;1.00
37678;DHT22;23517;50.390;8.616;2024-03-06T03:14:42;5.90;1.00
37678;DHT22;23517;50.390;8.616;2024-03-06T03:17:10;5.90;1.00
37678;DHT22;23517;50.390;8.616;2024-03-06T03:19:37;5.80;1.00
37678;DHT22;23517;50.390;8.616;2024-03-06T03:22:06;5.80;1.00
37678;DHT22;23517;50.390;8.616;2024-03-06T03:24:34;5.80;1.00
37678;DHT22;23517;50.390;8.616;2024-03-06T03:27:01;5.80;1.00
37678;DHT22;23517;50.390;8.616;2024-03-06T03:29:28;5.70;1.00
37678;DHT22;23517;50.390;8.616;2024-03-06T03:31:56;5.70;1.00
37678;DHT22;23517;50.390;8.616;2024-03-06T03:34:23;5.70;1.00
37678;DHT22;23517;50.390;8.616;2024-03-06T03:36:49;5.70;17.80
37678;DHT22;23517;50.390;8.616;2024-03-06T03:39:16;5.70;1.00
37678;DHT22;23517;50.390;8.616;2024-03-06T03:41:47;5.70;19.80
37678;DHT22;23517;50.390;8.616;2024-03-06T03:44:18;5.70;31.90
37678;DHT22;23517;50.390;8.616;2024-03-06T03:46:48;5.70;34.60
37678;DHT22;23517;50.390;8.616;2024-03-06T03:49:15;5.70;1.00
37678;DHT22;23517;50.390;8.616;2024-03-06T03:51:41;5.60;1.00
37678;DHT22;23517;50.390;8.616;2024-03-06T03:54:09;5.60;1.00
37678;DHT22;23517;50.390;8.616;2024-03-06T03:56:36;5.50;32.30
37678;DHT22;23517;50.390;8.616;2024-03-06T03:59:04;5.50;99.90
37678;DHT22;23517;50.390;8.616;2024-03-06T04:01:30;5.50;99.90
37678;DHT22;23517;50.390;8.616;2024-03-06T04:03:57;5.40;99.90
37678;DHT22;23517;50.390;8.616;2024-03-06T04:06:24;5.40;99.90
37678;DHT22;23517;50.390;8.616;2024-03-06T04:08:50;5.40;99.90
37678;DHT22;23517;50.390;8.616;2024-03-06T04:11:17;5.40;99.90
37678;DHT22;23517;50.390;8.616;2024-03-06T04:13:45;5.30;99.90
37678;DHT22;23517;50.390;8.616;2024-03-06T04:16:16;5.40;99.90
37678;DHT22;23517;50.390;8.616;2024-03-06T04:18:44;5.40;99.90
37678;DHT22;23517;50.390;8.616;2024-03-06T04:21:14;5.40;99.90
37678;DHT22;23517;50.390;8.616;2024-03-06T04:23:43;5.40;99.90
37678;DHT22;23517;50.390;8.616;2024-03-06T04:26:11;5.50;99.90
37678;DHT22;23517;50.390;8.616;2024-03-06T04:28:38;5.50;99.90
37678;DHT22;23517;50.390;8.616;2024-03-06T04:31:05;5.50;99.90
37678;DHT22;23517;50.390;8.616;2024-03-06T04:33:32;5.50;99.90
37678;DHT22;23517;50.390;8.616;2024-03-06T04:36:01;5.50;99.90
37678;DHT22;23517;50.390;8.616;2024-03-06T04:38:29;5.50;99.90
37678;DHT22;23517;50.390;8.616;2024-03-06T04:40:59;5.60;99.90
37678;DHT22;23517;50.390;8.616;2024-03-06T04:43:25;5.60;57.90
37678;DHT22;23517;50.390;8.616;2024-03-06T04:45:52;5.60;90.40
37678;DHT22;23517;50.390;8.616;2024-03-06T04:48:19;5.50;94.50
37678;DHT22;23517;50.390;8.616;2024-03-06T04:50:45;5.50;92.50
37678;DHT22;23517;50.390;8.616;2024-03-06T04:53:12;5.50;99.90
37678;DHT22;23517;50.390;8.616;2024-03-06T04:55:39;5.50;99.90
37678;DHT22;23517;50.390;8.616;2024-03-06T04:58:06;5.60;99.90
37678;DHT22;23517;50.390;8.616;2024-03-06T05:00:33;5.60;99.90
37678;DHT22;23517;50.390;8.616;2024-03-06T05:02:59;5.90;99.90
37678;DHT22;23517;50.390;8.616;2024-03-06T05:05:43;5.70;1.00
37678;DHT22;23517;50.390;8.616;2024-03-06T05:08:29;5.70;1.00
37678;DHT22;23517;50.390;8.616;2024-03-06T05:11:14;5.70;1.00
37678;DHT22;23517;50.390;8.616;2024-03-06T05:14:00;5.60;99.90
37678;DHT22;23517;50.390;8.616;2024-03-06T05:16:46;5.60;99.90
37678;DHT22;23517;50.390;8.616;2024-03-06T05:19:31;5.60;99.90
37678;DHT22;23517;50.390;8.616;2024-03-06T05:22:16;5.60;99.90
37678;DHT22;23517;50.390;8.616;2024-03-06T05:25:01;5.50;1.00
37678;DHT22;23517;50.390;8.616;2024-03-06T05:27:45;5.50;1.00
37678;DHT22;23517;50.390;8.616;2024-03-06T05:30:30;5.50;1.00
37678;DHT22;23517;50.390;8.616;2024-03-06T05:33:14;5.50;1.00
37678;DHT22;23517;50.390;8.616;2024-03-06T05:35:59;5.50;1.00
37678;DHT22;23517;50.390;8.616;2024-03-06T05:38:44;5.50;1.00
37678;DHT22;23517;50.390;8.616;2024-03-06T05:41:29;5.50;1.00
37678;DHT22;23517;50.390;8.616;2024-03-06T05:44:13;5.50;1.00
37678;DHT22;23517;50.390;8.616;2024-03-06T05:47:01;5.50;1.00
37678;DHT22;23517;50.390;8.616;2024-03-06T05:49:47;5.50;1.00
37678;DHT22;23517;50.390;8.616;2024-03-06T05:52:33;5.50;1.00
37678;DHT22;23517;50.390;8.616;2024-03-06T05:55:20;5.50;1.00
37678;DHT22;23517;50.390;8.616;2024-03-06T05:58:05;5.50;1.00
37678;DHT22;23517;50.390;8.616;2024-03-06T06:00:38;5.50;1.00
37678;DHT22;23517;50.390;8.616;2024-03-06T06:03:05;5.50;1.00
37678;DHT22;23517;50.390;8.616;2024-03-06T06:05:33;5.60;1.00
37678;DHT22;23517;50.390;8.616;2024-03-06T06:07:59;5.50;1.00
37678;DHT22;23517;50.390;8.616;2024-03-06T06:10:26;5.50;1.00
37678;DHT22;23517;50.390;8.616;2024-03-06T06:12:54;5.60;1.00
37678;DHT22;23517;50.390;8.616;2024-03-06T06:15:20;5.50;1.00
37678;DHT22;23517;50.390;8.616;2024-03-06T06:17:47;5.60;1.00
37678;DHT22;23517;50.390;8.616;2024-03-06T06:20:15;5.60;1.00
37678;DHT22;23517;50.390;8.616;2024-03-06T06:22:44;5.60;1.00
37678;DHT22;23517;50.390;8.616;2024-03-06T06:25:11;5.60;99.90
37678;DHT22;23517;50.390;8.616;2024-03-06T06:27:38;5.60;99.90
37678;DHT22;23517;50.390;8.616;2024-03-06T06:30:06;5.60;99.90
37678;DHT22;23517;50.390;8.616;2024-03-06T06:32:38;5.60;99.90
37678;DHT22;23517;50.390;8.616;2024-03-06T06:35:07;5.70;99.90
37678;DHT22;23517;50.390;8.616;2024-03-06T06:37:36;5.70;99.90
37678;DHT22;23517;50.390;8.616;2024-03-06T06:40:02;5.70;99.90
37678;DHT22;23517;50.390;8.616;2024-03-06T06:42:33;5.70;99.90
37678;DHT22;23517;50.390;8.616;2024-03-06T06:45:01;5.70;99.90
37678;DHT22;23517;50.390;8.616;2024-03-06T06:47:29;5.80;99.90
37678;DHT22;23517;50.390;8.616;2024-03-06T06:49:55;5.80;99.90
37678;DHT22;23517;50.390;8.616;2024-03-06T06:52:22;5.90;99.90
37678;DHT22;23517;50.390;8.616;2024-03-06T06:54:49;6.00;99.90
37678;DHT22;23517;50.390;8.616;2024-03-06T06:57:17;6.10;99.90
37678;DHT22;23517;50.390;8.616;2024-03-06T06:59:44;6.30;99.90
37678;DHT22;23517;50.390;8.616;2024-03-06T07:02:11;6.40;99.90
37678;DHT22;23517;50.390;8.616;2024-03-06T07:04:37;6.60;1.00
37678;DHT22;23517;50.390;8.616;2024-03-06T07:07:04;6.70;1.00
37678;DHT22;23517;50.390;8.616;2024-03-06T07:09:31;6.90;99.90
37678;DHT22;23517;50.390;8.616;2024-03-06T07:11:57;7.10;98.00
37678;DHT22;23517;50.390;8.616;2024-03-06T07:14:24;7.30;99.90
37678;DHT22;23517;50.390;8.616;2024-03-06T07:16:51;7.40;1.00
37678;DHT22;23517;50.390;8.616;2024-03-06T07:19:18;7.50;35.00
37678;DHT22;23517;50.390;8.616;2024-03-06T07:21:44;7.70;99.90
37678;DHT22;23517;50.390;8.616;2024-03-06T07:24:11;7.90;1.00
37678;DHT22;23517;50.390;8.616;2024-03-06T07:26:37;8.00;1.00
37678;DHT22;23517;50.390;8.616;2024-03-06T07:29:04;8.10;99.90
37678;DHT22;23517;50.390;8.616;2024-03-06T07:31:39;8.20;99.90
37678;DHT22;23517;50.390;8.616;2024-03-06T07:34:07;8.20;1.00
37678;DHT22;23517;50.390;8.616;2024-03-06T07:36:35;8.20;1.00
37678;DHT22;23517;50.390;8.616;2024-03-06T07:39:02;8.20;99.90
37678;DHT22;23517;50.390;8.616;2024-03-06T07:41:30;8.20;99.90
37678;DHT22;23517;50.390;8.616;2024-03-06T07:43:59;8.10;99.90
37678;DHT22;23517;50.390;8.616;2024-03-06T07:46:26;8.20;99.90
37678;DHT22;23517;50.390;8.616;2024-03-06T07:48:53;8.30;99.90
37678;DHT22;23517;50.390;8.616;2024-03-06T07:51:20;8.40;99.90
37678;DHT22;23517;50.390;8.616;2024-03-06T07:53:47;8.60;99.90
37678;DHT22;23517;50.390;8.616;2024-03-06T07:56:15;9.00;1.00
37678;DHT22;23517;50.390;8.616;2024-03-06T07:58:42;9.50;99.90
37678;DHT22;23517;50.390;8.616;2024-03-06T08:01:10;10.30;1.00
37678;DHT22;23517;50.390;8.616;2024-03-06T08:03:39;13.10;99.90
37678;DHT22;23517;50.390;8.616;2024-03-06T08:06:07;16.50;99.90
37678;DHT22;23517;50.390;8.616;2024-03-06T08:08:34;19.20;6.50
37678;DHT22;23517;50.390;8.616;2024-03-06T08:11:01;21.40;1.00
37678;DHT22;23517;50.390;8.616;2024-03-06T08:13:28;23.40;1.00
37678;DHT22;23517;50.390;8.616;2024-03-06T08:15:55;25.10;1.00
37678;DHT22;23517;50.390;8.616;2024-03-06T08:18:22;26.40;1.00
37678;DHT22;23517;50.390;8.616;2024-03-06T08:20:49;26.60;1.00
37678;DHT22;23517;50.390;8.616;2024-03-06T08:23:16;25.00;1.00
37678;DHT22;23517;50.390;8.616;2024-03-06T08:25:42;22.50;1.00
37678;DHT22;23517;50.390;8.616;2024-03-06T08:28:09;20.30;1.00
37678;DHT22;23517;50.390;8.616;2024-03-06T08:30:36;18.50;1.00
37678;DHT22;23517;50.390;8.616;2024-03-06T08:33:03;17.10;1.00
37678;DHT22;23517;50.390;8.616;2024-03-06T08:35:30;16.00;1.00
37678;DHT22;23517;50.390;8.616;2024-03-06T08:37:57;15.30;1.00
37678;DHT22;23517;50.390;8.616;2024-03-06T08:40:24;15.60;1.00
37678;DHT22;23517;50.390;8.616;2024-03-06T08:42:52;15.80;1.00
37678;DHT22;23517;50.390;8.616;2024-03-06T08:45:19;15.90;1.00
37678;DHT22;23517;50.390;8.616;2024-03-06T08:47:47;15.90;1.00
37678;DHT22;23517;50.390;8.616;2024-03-06T08:50:15;16.10;1.00
37678;DHT22;23517;50.390;8.616;2024-03-06T08:52:43;17.00;1.00
37678;DHT22;23517;50.390;8.616;2024-03-06T08:55:10;19.90;1.00
37678;DHT22;23517;50.390;8.616;2024-03-06T08:57:36;22.40;1.00
37678;DHT22;23517;50.390;8.616;2024-03-06T09:00:05;22.90;1.00
37678;DHT22;23517;50.390;8.616;2024-03-06T09:02:39;21.60;1.00
37678;DHT22;23517;50.390;8.616;2024-03-06T09:05:08;19.90;1.00
37678;DHT22;23517;50.390;8.616;2024-03-06T09:07:37;18.10;1.00
37678;DHT22;23517;50.390;8.616;2024-03-06T09:10:05;15.90;1.00
37678;DHT22;23517;50.390;8.616;2024-03-06T09:12:35;14.50;1.00
37678;DHT22;23517;50.390;8.616;2024-03-06T09:15:03;13.60;1.00
37678;DHT22;23517;50.390;8.616;2024-03-06T09:17:30;12.80;1.00
37678;DHT22;23517;50.390;8.616;2024-03-06T09:19:57;12.50;1.00
37678;DHT22;23517;50.390;8.616;2024-03-06T09:22:41;12.00;1.00
37678;DHT22;23517;50.390;8.616;2024-03-06T09:25:09;11.60;5.00
37678;DHT22;23517;50.390;8.616;2024-03-06T09:27:43;11.40;76.50
37678;DHT22;23517;50.390;8.616;2024-03-06T09:30:10;11.40;99.90
37678;DHT22;23517;50.390;8.616;2024-03-06T09:32:39;11.60;77.30
37678;DHT22;23517;50.390;8.616;2024-03-06T09:35:08;11.80;77.50
37678;DHT22;23517;50.390;8.616;2024-03-06T09:37:35;12.00;59.70
37678;DHT22;23517;50.390;8.616;2024-03-06T09:40:02;12.30;76.10
37678;DHT22;23517;50.390;8.616;2024-03-06T09:42:29;12.40;54.00
37678;DHT22;23517;50.390;8.616;2024-03-06T09:44:56;12.50;44.30
37678;DHT22;23517;50.390;8.616;2024-03-06T09:47:23;12.40;41.70
37678;DHT22;23517;50.390;8.616;2024-03-06T09:49:52;12.30;52.50
37678;DHT22;23517;50.390;8.616;2024-03-06T09:52:23;12.40;57.60
37678;DHT22;23517;50.390;8.616;2024-03-06T09:54:54;12.50;38.20
37678;DHT22;23517;50.390;8.616;2024-03-06T09:57:22;12.60;36.40
37678;DHT22;23517;50.390;8.616;2024-03-06T09:59:49;12.50;22.90
37678;DHT22;23517;50.390;8.616;2024-03-06T10:02:46;12.50;16.60
37678;DHT22;23517;50.390;8.616;2024-03-06T10:05:21;12.70;18.20
37678;DHT22;23517;50.390;8.616;2024-03-06T10:07:50;12.90;10.30
37678;DHT22;23517;50.390;8.616;2024-03-06T10:10:21;13.10;2.50
37678;DHT22;23517;50.390;8.616;2024-03-06T10:12:50;13.20;1.00
37678;DHT22;23517;50.390;8.616;2024-03-06T10:15:16;13.30;1.00
37678;DHT22;23517;50.390;8.616;2024-03-06T10:17:43;13.30;1.00
37678;DHT22;23517;50.390;8.616;2024-03-06T10:22:49;13.30;1.00
37678;DHT22;23517;50.390;8.616;2024-03-06T10:25:24;13.40;1.00
37678;DHT22;23517;50.390;8.616;2024-03-06T10:28:07;13.50;1.00
37678;DHT22;23517;50.390;8.616;2024-03-06T10:30:37;13.70;1.00
37678;DHT22;23517;50.390;8.616;2024-03-06T10:33:09;13.80;1.00
37678;DHT22;23517;50.390;8.616;2024-03-06T10:35:37;14.10;1.00
37678;DHT22;23517;50.390;8.616;2024-03-06T10:38:05;14.30;1.00
37678;DHT22;23517;50.390;8.616;2024-03-06T10:40:35;14.60;1.00
37678;DHT22;23517;50.390;8.616;2024-03-06T10:43:03;14.60;1.00
37678;DHT22;23517;50.390;8.616;2024-03-06T10:45:41;14.70;1.00
37678;DHT22;23517;50.390;8.616;2024-03-06T10:48:09;14.70;1.00
37678;DHT22;23517;50.390;8.616;2024-03-06T10:50:41;14.70;1.00
37678;DHT22;23517;50.390;8.616;2024-03-06T10:53:16;14.90;1.00
37678;DHT22;23517;50.390;8.616;2024-03-06T10:55:49;15.10;1.00
37678;DHT22;23517;50.390;8.616;2024-03-06T10:58:18;15.10;1.00
37678;DHT22;23517;50.390;8.616;2024-03-06T11:00:48;15.30;1.00
37678;DHT22;23517;50.390;8.616;2024-03-06T11:03:15;15.30;1.00
37678;DHT22;23517;50.390;8.616;2024-03-06T11:05:44;15.10;1.00
37678;DHT22;23517;50.390;8.616;2024-03-06T11:08:15;15.20;1.00
37678;DHT22;23517;50.390;8.616;2024-03-06T11:10:43;15.40;1.00
37678;DHT22;23517;50.390;8.616;2024-03-06T11:13:23;15.60;1.00
37678;DHT22;23517;50.390;8.616;2024-03-06T11:15:53;15.80;1.00
37678;DHT22;23517;50.390;8.616;2024-03-06T11:23:31;15.80;1.00
37678;DHT22;23517;50.390;8.616;2024-03-06T11:26:02;15.50;1.00
37678;DHT22;23517;50.390;8.616;2024-03-06T11:28:35;15.40;1.00
37678;DHT22;23517;50.390;8.616;2024-03-06T11:31:07;15.40;1.00
37678;DHT22;23517;50.390;8.616;2024-03-06T11:33:44;15.00;1.00
37678;DHT22;23517;50.390;8.616;2024-03-06T11:36:26;14.90;1.00
37678;DHT22;23517;50.390;8.616;2024-03-06T11:38:59;14.90;1.00
37678;DHT22;23517;50.390;8.616;2024-03-06T11:41:29;15.00;1.00
37678;DHT22;23517;50.390;8.616;2024-03-06T11:44:00;15.00;1.00
37678;DHT22;23517;50.390;8.616;2024-03-06T11:46:49;14.90;1.00
37678;DHT22;23517;50.390;8.616;2024-03-06T11:49:24;14.60;1.00
37678;DHT22;23517;50.390;8.616;2024-03-06T11:51:53;14.50;1.00
37678;DHT22;23517;50.390;8.616;2024-03-06T11:54:26;14.40;1.00
37678;DHT22;23517;50.390;8.616;2024-03-06T11:56:56;14.20;1.00
37678;DHT22;23517;50.390;8.616;2024-03-06T12:01:58;13.70;1.00
37678;DHT22;23517;50.390;8.616;2024-03-06T12:04:29;13.40;1.00
37678;DHT22;23517;50.390;8.616;2024-03-06T12:06:57;13.00;1.00
37678;DHT22;23517;50.390;8.616;2024-03-06T12:09:37;12.70;1.00
37678;DHT22;23517;50.390;8.616;2024-03-06T12:12:09;12.50;1.00
37678;DHT22;23517;50.390;8.616;2024-03-06T12:14:37;12.40;1.00
37678;DHT22;23517;50.390;8.616;2024-03-06T12:17:06;12.40;1.00
37678;DHT22;23517;50.390;8.616;2024-03-06T12:19:35;12.60;1.00
37678;DHT22;23517;50.390;8.616;2024-03-06T12:22:03;12.90;1.00
37678;DHT22;23517;50.390;8.616;2024-03-06T12:24:31;13.20;1.00
37678;DHT22;23517;50.390;8.616;2024-03-06T12:27:03;13.50;1.00
37678;DHT22;23517;50.390;8.616;2024-03-06T12:29:32;13.50;1.00
37678;DHT22;23517;50.390;8.616;2024-03-06T12:32:00;13.20;1.00
37678;DHT22;23517;50.390;8.616;2024-03-06T12:34:28;13.00;1.00
37678;DHT22;23517;50.390;8.616;2024-03-06T12:36:56;12.80;1.00
37678;DHT22;23517;50.390;8.616;2024-03-06T12:39:23;12.70;1.00
37678;DHT22;23517;50.390;8.616;2024-03-06T12:41:52;12.80;1.00
37678;DHT22;23517;50.390;8.616;2024-03-06T12:44:19;12.90;1.00
37678;DHT22;23517;50.390;8.616;2024-03-06T12:46:47;13.10;1.00
37678;DHT22;23517;50.390;8.616;2024-03-06T12:49:13;13.10;1.00
37678;DHT22;23517;50.390;8.616;2024-03-06T12:51:41;13.10;1.00
37678;DHT22;23517;50.390;8.616;2024-03-06T12:54:07;13.00;1.00
37678;DHT22;23517;50.390;8.616;2024-03-06T12:56:35;12.70;1.00
37678;DHT22;23517;50.390;8.616;2024-03-06T12:59:02;12.60;1.00
37678;DHT22;23517;50.390;8.616;2024-03-06T13:01:30;12.50;1.00
37678;DHT22;23517;50.390;8.616;2024-03-06T13:03:58;12.40;1.00
37678;DHT22;23517;50.390;8.616;2024-03-06T13:06:32;12.40;1.00
37678;DHT22;23517;50.390;8.616;2024-03-06T13:08:59;12.60;1.00
37678;DHT22;23517;50.390;8.616;2024-03-06T13:11:26;12.70;1.00
37678;DHT22;23517;50.390;8.616;2024-03-06T13:13:53;12.60;1.00
37678;DHT22;23517;50.390;8.616;2024-03-06T13:16:20;12.50;1.00
37678;DHT22;23517;50.390;8.616;2024-03-06T13:18:48;12.40;1.00
37678;DHT22;23517;50.390;8.616;2024-03-06T13:21:16;12.50;1.00
37678;DHT22;23517;50.390;8.616;2024-03-06T13:23:42;12.60;1.00
37678;DHT22;23517;50.390;8.616;2024-03-06T13:26:09;12.70;1.00
37678;DHT22;23517;50.390;8.616;2024-03-06T13:28:36;12.70;1.00
37678;DHT22;23517;50.390;8.616;2024-03-06T13:31:03;12.50;1.00
37678;DHT22;23517;50.390;8.616;2024-03-06T13:33:32;12.40;1.00
37678;DHT22;23517;50.390;8.616;2024-03-06T13:35:58;12.40;1.00
37678;DHT22;23517;50.390;8.616;2024-03-06T13:38:28;12.40;1.00
37678;DHT22;23517;50.390;8.616;2024-03-06T13:40:55;12.50;1.00
37678;DHT22;23517;50.390;8.616;2024-03-06T13:43:22;12.60;1.00
37678;DHT22;23517;50.390;8.616;2024-03-06T13:45:50;12.70;1.00
37678;DHT22;23517;50.390;8.616;2024-03-06T13:48:18;12.70;1.00
37678;DHT22;23517;50.390;8.616;2024-03-06T13:50:46;12.70;1.00
37678;DHT22;23517;50.390;8.616;2024-03-06T13:53:13;12.70;1.00
37678;DHT22;23517;50.390;8.616;2024-03-06T13:55:41;12.40;1.00
37678;DHT22;23517;50.390;8.616;2024-03-06T13:58:08;12.30;1.00
37678;DHT22;23517;50.390;8.616;2024-03-06T14:00:35;12.10;1.00
37678;DHT22;23517;50.390;8.616;2024-03-06T14:03:03;12.10;1.00
37678;DHT22;23517;50.390;8.616;2024-03-06T14:05:30;12.10;1.00
37678;DHT22;23517;50.390;8.616;2024-03-06T14:07:57;11.90;1.00
37678;DHT22;23517;50.390;8.616;2024-03-06T14:10:24;11.80;1.00
37678;DHT22;23517;50.390;8.616;2024-03-06T14:12:51;11.70;1.00
37678;DHT22;23517;50.390;8.616;2024-03-06T14:15:19;11.80;1.00
37678;DHT22;23517;50.390;8.616;2024-03-06T14:17:46;11.90;1.00
37678;DHT22;23517;50.390;8.616;2024-03-06T14:20:13;12.00;1.00
37678;DHT22;23517;50.390;8.616;2024-03-06T14:22:42;11.90;1.00
37678;DHT22;23517;50.390;8.616;2024-03-06T14:25:09;11.90;1.00
37678;DHT22;23517;50.390;8.616;2024-03-06T14:27:35;11.80;1.00
37678;DHT22;23517;50.390;8.616;2024-03-06T14:30:04;11.70;1.00
37678;DHT22;23517;50.390;8.616;2024-03-06T14:32:33;11.60;1.00
37678;DHT22;23517;50.390;8.616;2024-03-06T14:35:01;11.50;1.00
37678;DHT22;23517;50.390;8.616;2024-03-06T14:37:28;11.40;1.00
37678;DHT22;23517;50.390;8.616;2024-03-06T14:39:57;11.40;1.00
37678;DHT22;23517;50.390;8.616;2024-03-06T14:42:23;11.40;1.00
37678;DHT22;23517;50.390;8.616;2024-03-06T14:44:50;11.40;1.00
37678;DHT22;23517;50.390;8.616;2024-03-06T14:47:17;11.40;1.00
37678;DHT22;23517;50.390;8.616;2024-03-06T14:49:44;11.50;1.00
37678;DHT22;23517;50.390;8.616;2024-03-06T14:52:12;11.40;1.00
37678;DHT22;23517;50.390;8.616;2024-03-06T14:54:40;11.40;1.00
37678;DHT22;23517;50.390;8.616;2024-03-06T14:57:11;11.50;1.00
37678;DHT22;23517;50.390;8.616;2024-03-06T14:59:39;11.50;1.00
37678;DHT22;23517;50.390;8.616;2024-03-06T15:02:05;11.50;1.00
37678;DHT22;23517;50.390;8.616;2024-03-06T15:04:33;11.40;1.00
37678;DHT22;23517;50.390;8.616;2024-03-06T15:06:59;11.40;1.00
37678;DHT22;23517;50.390;8.616;2024-03-06T15:09:26;11.30;1.00
37678;DHT22;23517;50.390;8.616;2024-03-06T15:11:54;11.30;1.00
37678;DHT22;23517;50.390;8.616;2024-03-06T15:14:23;11.30;1.00
37678;DHT22;23517;50.390;8.616;2024-03-06T15:16:49;11.20;1.00
37678;DHT22;23517;50.390;8.616;2024-03-06T15:19:16;11.20;1.00
37678;DHT22;23517;50.390;8.616;2024-03-06T15:21:43;11.10;1.00
37678;DHT22;23517;50.390;8.616;2024-03-06T15:24:10;11.10;1.00
37678;DHT22;23517;50.390;8.616;2024-03-06T15:26:37;11.00;1.00
37678;DHT22;23517;50.390;8.616;2024-03-06T15:29:04;10.90;1.00
37678;DHT22;23517;50.390;8.616;2024-03-06T15:31:36;10.80;7.60
37678;DHT22;23517;50.390;8.616;2024-03-06T15:34:02;10.70;18.10
37678;DHT22;23517;50.390;8.616;2024-03-06T15:36:29;10.70;21.70
37678;DHT22;23517;50.390;8.616;2024-03-06T15:38:57;10.70;7.80
37678;DHT22;23517;50.390;8.616;2024-03-06T15:41:25;10.60;1.00
37678;DHT22;23517;50.390;8.616;2024-03-06T15:43:51;10.60;4.20
37678;DHT22;23517;50.390;8.616;2024-03-06T15:46:18;10.50;3.10
37678;DHT22;23517;50.390;8.616;2024-03-06T15:48:45;10.50;8.70
37678;DHT22;23517;50.390;8.616;2024-03-06T15:51:12;10.50;7.00
37678;DHT22;23517;50.390;8.616;2024-03-06T15:53:39;10.40;16.40
37678;DHT22;23517;50.390;8.616;2024-03-06T15:56:06;10.40;15.80
37678;DHT22;23517;50.390;8.616;2024-03-06T15:58:33;10.30;13.90
37678;DHT22;23517;50.390;8.616;2024-03-06T16:01:00;10.20;17.40
37678;DHT22;23517;50.390;8.616;2024-03-06T16:03:31;10.10;21.40
37678;DHT22;23517;50.390;8.616;2024-03-06T16:05:58;10.00;37.70
37678;DHT22;23517;50.390;8.616;2024-03-06T16:08:40;9.80;45.50
37678;DHT22;23517;50.390;8.616;2024-03-06T16:11:09;9.70;37.80